Terminal Aerodrome Forecast
Issued by NWS

Home | Current Version | Previous Version | Graphics & Text | Print | Product List | Glossary On
Versions: 1 2 3 4 5 6 7 8 9 10 11 12 13 14 15 16
222
FTUS43 KABR 261134 AAA
TAFATY
TAF AMD
KATY 261134Z 2612/2712 30008KT P6SM BKN150
     FM261600 29012KT P6SM FEW250
     FM270200 27007KT P6SM FEW250=

USA.gov is the U.S. government's official web portal to all federal, state and local government web resources and services.